Portada
METAR-TAF:

METAR-TAF

Aeroports :

Chetumal, Mèxic

latitud: 18-29N, longitud: 088-18W, altitud: 9 m

Observació

L'informe es va fer fa 12 hores i 3 minuts, a les 23:44 UTC
Vent 5 kt del Est/Sud-Est
Temperatura 25°C
Humitat 83%
Pressió 1012 hPa
Visibilitat: 11.3 km
Núvols disperses a una alçada de 2000 ft

METAR: MMCM 242344Z 11005KT 7SM SCT020 25/22 A2989 RMK SLP123 5//// 974 8/500

Hora: 05:47 (11:47 UTC)

Pronòstic

L'informe es va fer fa 6 hores i 53 minuts, a les 04:54 UTC
Pronòstic vàlid del 25 a les 06 UTC al 26 a les 06 UTC
Vent 5 kt del Est/Sud-Est
Visibilitat: 10 km
Núvols disperses a una alçada de 2000 ft
A partir de les 25 a les 1700 UTC
Vent 10 kt del Est/Sud-Est
Visibilitat: 10 km
Núvols disperses a una alçada de 2000 ft
A partir de les 26 a les 0200 UTC
Vent 8 kt del Sud-Est
Visibilitat: 10 km
Núvols disperses a una alçada de 2000 ft

TAF: MMCM 250454Z 2506/2606 11005KT P6SM SCT020 FM251700 12010KT P6SM SCT020 FM260200 13008KT P6SM SCT020

Observacions i pronòstics meteorològics de més de 4000 aeroports (METAR i TAF).

Les estacions disponibles són els punts grocs i vermells al mapa.

Posi el ratolí al punt desitjat per veure el nom de l'estació.

Feu clic per veure les observacions i els pronòstics meteorològics.

Per canviar el mapa: feu clic els botons verds amb una creu de color negre per apropar; al botó verd amb un guió per allunyar la imatge; o en les fletxes verdes per a mapes adjacents.


METAR-TAF: